Time;durP1;ratioP1;P1;durP2;ratioP2;P2;SDS_P1;SDS_P2;PMS_P1;PMS_P2;Temp;Humidity;BMP_temperature;BMP_pressure;BME280_temperature;BME280_humidity;BME280_pressure;Samples;Min_cycle;Max_cycle;Signal;HPM_P1;HPM_P2
2021/08/05 00:02:29;;;;;;;5.90;3.17;;;;;;;16.38;71.98;101000.62;1642624;87;21713;-69
2021/08/05 00:05:02;;;;;;;9.45;3.55;;;;;;;16.36;72.05;101002.56;1648216;87;21240;-69
2021/08/05 00:07:35;;;;;;;10.00;3.27;;;;;;;16.30;72.01;101002.36;1649447;87;21210;-69
2021/08/05 00:10:09;;;;;;;7.33;2.92;;;;;;;16.24;72.08;101005.12;1646917;87;21225;-70
2021/08/05 00:12:43;;;;;;;6.65;2.77;;;;;;;16.21;72.13;101019.14;1646993;87;21539;-69
2021/08/05 00:15:16;;;;;;;7.08;2.95;;;;;;;16.15;72.31;101014.80;1646628;87;21304;-69
2021/08/05 00:17:49;;;;;;;9.05;3.30;;;;;;;16.15;72.54;101019.25;1647281;87;21212;-69
2021/08/05 00:20:22;;;;;;;7.27;2.90;;;;;;;16.16;72.71;101015.16;1647005;87;21284;-69
2021/08/05 00:22:55;;;;;;;5.37;2.87;;;;;;;16.16;72.84;101014.32;1647219;87;21268;-69
2021/08/05 00:25:28;;;;;;;6.43;2.67;;;;;;;16.16;72.94;101016.96;1647002;87;21256;-70
2021/08/05 00:28:02;;;;;;;5.22;2.75;;;;;;;16.14;73.04;101014.97;1647516;87;21213;-70
2021/08/05 00:30:36;;;;;;;7.22;2.90;;;;;;;16.10;73.11;101013.11;1650143;87;21331;-69
2021/08/05 00:33:10;;;;;;;7.55;3.40;;;;;;;16.07;73.09;101009.45;1648988;87;21366;-68
2021/08/05 00:35:44;;;;;;;12.82;3.60;;;;;;;16.01;73.02;101006.59;1647231;87;21260;-69
2021/08/05 00:38:17;;;;;;;8.95;3.00;;;;;;;15.96;73.09;101001.78;1648036;87;21257;-69
2021/08/05 00:40:50;;;;;;;7.35;2.95;;;;;;;15.91;73.01;101006.69;1648631;87;21236;-70
2021/08/05 00:43:23;;;;;;;9.87;3.63;;;;;;;15.86;73.02;101005.47;1648248;87;21173;-68
2021/08/05 00:45:57;;;;;;;11.18;3.52;;;;;;;15.79;73.14;101002.61;1647134;87;21288;-69
2021/08/05 00:48:30;;;;;;;11.23;3.70;;;;;;;15.77;73.32;101011.17;1647238;87;21185;-70
2021/08/05 00:51:03;;;;;;;10.78;3.50;;;;;;;15.76;73.37;101006.86;1646937;87;21606;-70
2021/08/05 00:53:36;;;;;;;7.22;3.35;;;;;;;15.75;73.37;101003.91;1648430;87;21217;-69
2021/08/05 00:56:09;;;;;;;10.80;3.27;;;;;;;15.76;73.45;101008.70;1649075;87;21240;-70
2021/08/05 00:58:42;;;;;;;9.38;4.05;;;;;;;15.76;73.25;101010.02;1647374;87;21208;-69
2021/08/05 01:01:20;;;;;;;16.62;3.70;;;;;;;15.72;72.93;101015.24;1647004;87;21292;-68
2021/08/05 01:03:56;;;;;;;8.98;3.15;;;;;;;15.69;72.73;101011.61;1638621;87;21244;-69
2021/08/05 01:06:34;;;;;;;8.95;3.67;;;;;;;15.69;72.56;101008.45;1636443;86;21221;-68
2021/08/05 01:09:12;;;;;;;8.45;3.40;;;;;;;15.71;72.43;101015.76;1637161;86;22101;-69
2021/08/05 01:12:04;;;;;;;9.30;3.37;;;;;;;15.72;72.35;101018.72;1636489;86;21249;-69
2021/08/05 01:14:40;;;;;;;7.62;3.30;;;;;;;15.72;72.32;101013.44;1635146;87;21539;-69
2021/08/05 01:17:13;;;;;;;11.55;3.60;;;;;;;15.74;72.51;101019.91;1635176;87;21221;-68
2021/08/05 01:19:54;;;;;;;10.30;3.60;;;;;;;15.75;72.39;101019.74;1639051;87;21328;-69
2021/08/05 01:23:11;;;;;;;8.58;3.12;;;;;;;15.73;72.16;101017.75;1634874;87;21246;-70
2021/08/05 01:26:13;;;;;;;7.92;3.00;;;;;;;15.73;72.07;101019.55;1634542;87;21522;-69
2021/08/05 01:28:46;;;;;;;23.47;3.65;;;;;;;15.74;72.14;101018.07;1635929;86;21208;-69
2021/08/05 01:31:22;;;;;;;12.98;3.30;;;;;;;15.75;72.06;101018.42;1635574;87;21241;-69
2021/08/05 01:33:55;;;;;;;9.63;3.55;;;;;;;15.76;71.98;101016.11;1616005;87;21316;-69
2021/08/05 01:36:29;;;;;;;26.82;4.17;;;;;;;15.76;71.95;101012.66;1635694;87;21289;-68
2021/08/05 01:39:05;;;;;;;14.18;3.75;;;;;;;15.75;71.92;101015.78;1635709;87;21476;-68
2021/08/05 01:41:38;;;;;;;22.42;3.45;;;;;;;15.75;71.74;101016.27;1643769;86;21245;-69
2021/08/05 01:44:12;;;;;;;8.13;2.70;;;;;;;15.72;71.52;101008.64;1639056;86;21332;-70
2021/08/05 01:46:46;;;;;;;8.20;3.22;;;;;;;15.70;71.42;101010.13;1636085;86;21229;-68
2021/08/05 01:49:19;;;;;;;9.65;3.50;;;;;;;15.70;71.37;101010.61;1635851;87;21502;-69
2021/08/05 01:51:52;;;;;;;4.70;2.47;;;;;;;15.71;71.14;101009.64;1635707;87;21237;-69
2021/08/05 01:54:25;;;;;;;6.97;2.95;;;;;;;15.70;70.88;101007.48;1635710;87;21248;-69
2021/08/05 01:57:00;;;;;;;6.10;3.15;;;;;;;15.67;70.52;101018.81;1635849;87;21221;-69
2021/08/05 01:59:33;;;;;;;10.78;3.75;;;;;;;15.66;70.37;101021.14;1635960;86;21254;-69
2021/08/05 02:02:07;;;;;;;6.20;3.00;;;;;;;15.65;70.26;101016.34;1635556;87;21296;-68
2021/08/05 02:05:14;;;;;;;10.13;3.17;;;;;;;15.64;70.19;101012.55;1636701;86;21252;-69
2021/08/05 02:08:05;;;;;;;5.58;3.10;;;;;;;15.64;70.33;101004.62;1639586;87;21237;-69
2021/08/05 02:10:46;;;;;;;9.48;2.98;;;;;;;15.67;70.56;101010.90;1637570;87;21985;-69
2021/08/05 02:13:28;;;;;;;4.70;2.95;;;;;;;15.73;70.70;101018.23;1637303;86;21261;-68
2021/08/05 02:16:03;;;;;;;8.95;3.27;;;;;;;15.78;70.69;101014.66;1637005;86;21270;-69
2021/08/05 02:18:39;;;;;;;5.80;2.92;;;;;;;15.82;70.58;101010.72;1636215;86;21225;-68
2021/08/05 02:21:15;;;;;;;5.65;2.80;;;;;;;15.87;70.37;101008.46;1636261;87;21264;-69
2021/08/05 02:23:48;;;;;;;11.35;3.40;;;;;;;15.89;70.19;101008.65;1636358;86;21273;-69
2021/08/05 02:26:22;;;;;;;8.08;2.65;;;;;;;15.94;70.00;101006.87;1636814;87;21354;-69
2021/08/05 02:28:55;;;;;;;9.67;3.50;;;;;;;15.98;69.83;101010.37;1637015;87;21618;-69
2021/08/05 02:31:28;;;;;;;10.27;3.13;;;;;;;16.03;69.61;101013.88;1640568;86;21332;-69
2021/08/05 02:34:01;;;;;;;14.07;3.52;;;;;;;16.06;69.48;101015.73;1637568;87;21245;-69
2021/08/05 02:36:34;;;;;;;6.20;2.92;;;;;;;16.13;69.25;101015.94;1636841;87;21229;-69
2021/08/05 02:39:07;;;;;;;9.70;2.87;;;;;;;16.17;68.95;101012.84;1638516;86;21360;-69
2021/08/05 02:41:40;;;;;;;11.23;3.50;;;;;;;16.23;68.63;101006.60;1638077;86;21201;-69
2021/08/05 02:44:14;;;;;;;6.60;2.97;;;;;;;16.28;68.31;101004.33;1639155;87;21356;-70
2021/08/05 02:46:48;;;;;;;7.20;3.70;;;;;;;16.30;68.21;101009.80;1636965;86;22013;-70
2021/08/05 02:49:21;;;;;;;11.20;3.20;;;;;;;16.31;68.09;101012.77;1636769;86;21384;-69
2021/08/05 02:51:54;;;;;;;11.00;3.35;;;;;;;16.34;67.92;101009.82;1638324;86;21327;-69
2021/08/05 02:54:29;;;;;;;9.45;3.20;;;;;;;16.39;67.84;101017.28;1637400;87;21415;-69
2021/08/05 02:57:03;;;;;;;8.48;3.20;;;;;;;16.40;67.68;101011.86;1639963;87;22132;-69
2021/08/05 02:59:36;;;;;;;15.33;3.60;;;;;;;16.43;67.41;101016.01;1637180;86;21323;-69
2021/08/05 03:02:09;;;;;;;12.18;2.98;;;;;;;16.48;67.23;101015.86;1637872;86;22100;-69
2021/08/05 03:04:42;;;;;;;15.18;3.60;;;;;;;16.54;67.23;101019.73;1636699;87;21351;-70
2021/08/05 03:07:15;;;;;;;12.65;3.45;;;;;;;16.57;67.07;101018.95;1636765;87;21339;-68
2021/08/05 03:09:48;;;;;;;;;;;;;;;16.59;66.82;101016.13;1638659;87;21221;-69
2021/08/05 03:12:21;;;;;;;16.75;4.10;;;;;;;16.60;66.84;101021.25;1637489;86;20288;-69
2021/08/05 03:14:54;;;;;;;7.25;3.00;;;;;;;16.62;66.80;101017.95;1621721;87;21244;-69
2021/08/05 03:17:27;;;;;;;6.17;3.10;;;;;;;16.66;66.76;101029.90;1647618;87;21249;-69
2021/08/05 03:20:00;;;;;;;7.40;3.30;;;;;;;16.72;66.63;101025.30;1643821;87;21360;-70
2021/08/05 03:22:35;;;;;;;11.25;3.20;;;;;;;16.78;66.54;101028.64;1624579;88;21582;-70
2021/08/05 03:25:09;;;;;;;18.70;3.47;;;;;;;16.84;66.37;101028.00;1667187;84;21205;-69
2021/08/05 03:27:41;;;;;;;;;;;;;;;16.92;66.06;101033.83;1638860;87;22149;-69
2021/08/05 03:30:15;;;;;;;10.23;3.75;;;;;;;17.01;66.00;101041.30;1622592;88;20230;-69
2021/08/05 03:32:48;;;;;;;11.88;3.75;;;;;;;17.06;66.01;101038.52;1600569;88;21216;-69
2021/08/05 03:35:21;;;;;;;14.07;3.60;;;;;;;17.16;66.00;101038.40;1599821;88;21252;-69
2021/08/05 03:37:55;;;;;;;16.65;4.00;;;;;;;17.24;66.02;101030.50;1622770;88;21267;-69
2021/08/05 03:40:28;;;;;;;13.28;3.42;;;;;;;17.34;66.05;101021.91;1622896;88;21264;-69
2021/08/05 03:43:01;;;;;;;15.72;3.40;;;;;;;17.42;65.98;101019.30;1624645;88;21197;-69
2021/08/05 03:45:35;;;;;;;8.63;3.37;;;;;;;17.52;65.70;101020.02;1626247;88;21224;-70
2021/08/05 03:48:08;;;;;;;10.43;3.43;;;;;;;17.63;65.42;101018.87;1623124;88;21209;-68
2021/08/05 03:50:42;;;;;;;7.58;3.10;;;;;;;17.80;65.09;101013.44;1622836;88;21280;-70
2021/08/05 03:53:15;;;;;;;8.97;3.30;;;;;;;18.24;64.56;101008.65;1624200;88;21212;-70
2021/08/05 03:55:48;;;;;;;15.23;4.57;;;;;;;18.92;63.40;101015.64;1623136;88;21982;-70
2021/08/05 03:58:21;;;;;;;13.28;3.98;;;;;;;19.34;61.90;101022.77;1620687;88;21240;-70
2021/08/05 04:00:54;;;;;;;20.60;9.23;;;;;;;19.55;61.24;101027.48;1615418;87;21367;-70
2021/08/05 04:03:27;;;;;;;31.55;11.85;;;;;;;19.63;60.90;101014.14;1616237;88;21347;-70
2021/08/05 04:06:01;;;;;;;24.75;13.40;;;;;;;19.70;60.80;101014.28;1628659;87;21405;-69
2021/08/05 04:08:34;;;;;;;30.35;11.90;;;;;;;19.77;60.69;101019.21;1671403;85;21327;-69
2021/08/05 04:11:08;;;;;;;17.73;7.37;;;;;;;19.81;60.67;101018.67;1668908;86;21244;-68
2021/08/05 04:13:41;;;;;;;10.10;4.87;;;;;;;20.04;60.60;101015.50;1668446;86;21253;-68
2021/08/05 04:16:15;;;;;;;18.62;5.87;;;;;;;20.28;60.09;101025.62;1668573;84;21269;-69
2021/08/05 04:18:49;;;;;;;11.65;5.62;;;;;;;20.32;59.56;101024.27;1668337;86;21389;-72
2021/08/05 04:21:22;;;;;;;18.10;4.90;;;;;;;20.32;59.52;101026.44;1649872;86;22039;-70
2021/08/05 04:23:55;;;;;;;27.55;12.93;;;;;;;20.33;59.58;101024.08;1670039;86;21253;-72
2021/08/05 04:26:28;;;;;;;43.37;19.03;;;;;;;20.92;59.29;101023.61;1671115;86;21304;-72
2021/08/05 04:29:02;;;;;;;26.68;9.43;;;;;;;21.97;57.26;101023.56;1670708;86;21328;-73
2021/08/05 04:31:35;;;;;;;12.15;5.30;;;;;;;22.45;54.81;101013.91;1672316;84;21221;-72
2021/08/05 04:34:09;;;;;;;17.02;5.05;;;;;;;22.42;54.10;101017.78;1674140;86;21316;-73
2021/08/05 04:36:42;;;;;;;21.70;6.45;;;;;;;22.77;53.61;101021.31;1670952;84;21780;-73
2021/08/05 04:39:15;;;;;;;22.22;7.78;;;;;;;23.65;51.97;101021.28;1671218;85;21327;-77
2021/08/05 04:41:48;;;;;;;23.15;6.95;;;;;;;24.63;49.54;101020.50;1670120;84;21499;-74
2021/08/05 04:44:21;;;;;;;23.62;7.25;;;;;;;25.60;47.05;101022.57;1666444;85;21319;-74
2021/08/05 04:46:54;;;;;;;16.52;6.67;;;;;;;26.52;44.76;101011.94;1659094;85;21320;-73
2021/08/05 04:49:28;;;;;;;21.23;6.87;;;;;;;27.47;42.66;101015.00;1655682;85;21222;-74
2021/08/05 04:52:01;;;;;;;21.27;6.92;;;;;;;28.35;40.64;101010.55;1673115;85;21270;-72
2021/08/05 04:54:35;;;;;;;20.60;7.75;;;;;;;29.10;39.32;101011.39;1680448;85;21293;-73
2021/08/05 05:05:26;;;;;;;13.10;3.40;;;;;;;31.68;33.49;101004.83;1677199;85;21952;-71
2021/08/05 05:11:55;;;;;;;11.97;3.20;;;;;;;32.75;30.37;100999.95;1666604;86;21345;-69
2021/08/05 05:18:38;;;;;;;10.55;2.35;;;;;;;33.87;28.98;100997.29;1671381;85;21158;-71
2021/08/05 05:25:20;;;;;;;9.25;2.42;;;;;;;34.96;27.59;100987.58;1672291;85;21562;-70
2021/08/05 05:27:53;;;;;;;7.90;2.33;;;;;;;35.72;26.48;100987.41;1647421;86;21347;-68
2021/08/05 05:30:26;;;;;;;6.50;2.22;;;;;;;36.16;25.80;100987.30;1651952;86;21238;-70
2021/08/05 05:33:00;;;;;;;8.98;2.05;;;;;;;36.57;25.25;100984.20;1664411;86;21433;-72
2021/08/05 05:35:33;;;;;;;10.45;3.05;;;;;;;36.93;24.93;100982.66;1671768;86;22111;-71
2021/08/05 05:38:06;;;;;;;9.03;2.15;;;;;;;37.39;24.59;100985.03;1671869;85;21786;-71
2021/08/05 05:40:39;;;;;;;6.08;2.12;;;;;;;37.88;24.05;100980.42;1672792;85;21207;-74
2021/08/05 05:43:13;;;;;;;6.72;2.10;;;;;;;38.33;23.68;100970.62;1671046;85;21293;-74
2021/08/05 05:45:47;;;;;;;8.75;2.25;;;;;;;38.85;22.89;100967.38;1674166;86;21258;-73
2021/08/05 05:48:20;;;;;;;6.17;2.37;;;;;;;39.31;22.46;100963.09;1673957;85;22085;-71
2021/08/05 05:50:54;;;;;;;11.33;3.10;;;;;;;39.78;21.95;100967.14;1672820;86;21349;-73
2021/08/05 05:53:27;;;;;;;8.10;2.20;;;;;;;40.09;21.46;100962.51;1671964;85;21391;-74
2021/08/05 05:56:01;;;;;;;13.85;2.25;;;;;;;40.35;21.27;100967.54;1672151;85;21160;-70
2021/08/05 05:58:34;;;;;;;14.43;2.90;;;;;;;40.51;21.12;100965.19;1662632;85;21317;-72
2021/08/05 06:01:08;;;;;;;10.55;2.52;;;;;;;40.96;20.92;100962.48;1651140;86;21178;-70
2021/08/05 06:03:41;;;;;;;5.20;2.87;;;;;;;41.54;20.50;100966.14;1672185;85;22091;-69
2021/08/05 06:06:14;;;;;;;6.92;2.40;;;;;;;41.91;20.17;100972.09;1672012;85;21349;-69
2021/08/05 06:08:48;;;;;;;6.05;3.40;;;;;;;42.31;19.78;100965.16;1661851;85;21226;-68
2021/08/05 06:11:27;;;;;;;11.83;3.55;;;;;;;42.68;19.60;100969.05;1673719;85;21164;-69
2021/08/05 06:14:02;;;;;;;12.03;3.98;;;;;;;43.00;19.28;100964.23;1671546;85;21163;-69
2021/08/05 06:16:36;;;;;;;11.22;3.30;;;;;;;43.25;19.07;100959.66;1671930;85;21179;-70
2021/08/05 06:19:11;;;;;;;5.45;2.92;;;;;;;43.54;18.90;100955.44;1669584;85;21206;-71
2021/08/05 06:21:44;;;;;;;10.20;3.02;;;;;;;43.87;18.77;100960.38;1650705;86;21179;-70
2021/08/05 06:24:18;;;;;;;11.15;3.00;;;;;;;44.22;18.29;100958.02;1672187;85;21215;-71
2021/08/05 06:26:51;;;;;;;17.48;2.87;;;;;;;44.54;17.95;100964.04;1670892;85;22063;-72
2021/08/05 06:29:29;;;;;;;7.87;2.72;;;;;;;44.87;17.81;100965.27;1672072;85;21690;-73
2021/08/05 06:31:59;;;;;;;6.70;2.47;;;;;;;45.30;17.39;100961.82;1672099;85;21292;-71
2021/08/05 06:34:32;;;;;;;19.60;3.70;;;;;;;45.66;17.16;100958.91;1675073;85;21116;-67
2021/08/05 06:37:07;;;;;;;13.03;2.72;;;;;;;45.99;16.65;100960.80;1671614;85;21441;-71
2021/08/05 06:39:41;;;;;;;11.93;3.40;;;;;;;46.23;16.38;100958.98;1669544;85;21187;-72
2021/08/05 06:42:15;;;;;;;28.67;4.08;;;;;;;46.30;16.00;100961.92;1671889;85;21303;-68
2021/08/05 06:44:48;;;;;;;12.45;3.30;;;;;;;46.51;15.96;100954.95;1669853;85;21912;-71
2021/08/05 06:47:21;;;;;;;5.37;1.92;;;;;;;46.68;15.54;100943.47;1672337;85;21266;-72
2021/08/05 06:49:54;;;;;;;5.25;2.30;;;;;;;46.32;15.80;100946.56;1671619;85;21624;-68
2021/08/05 06:52:27;;;;;;;1.12;1.02;;;;;;;46.23;14.98;100943.76;1669939;85;21485;-71
2021/08/05 06:55:00;;;;;;;5.65;2.37;;;;;;;46.24;14.08;100946.77;1671483;85;21444;-70
2021/08/05 06:57:39;;;;;;;10.35;6.37;;;;;;;46.21;13.73;100944.12;1671864;85;21364;-71
2021/08/05 07:00:26;;;;;;;3.08;1.30;;;;;;;46.34;13.83;100933.79;1861914;76;22167;-72
2021/08/05 07:03:02;;;;;;;9.15;3.75;;;;;;;46.43;13.33;100927.47;1816935;79;21304;-70
2021/08/05 07:05:39;;;;;;;21.50;5.60;;;;;;;46.38;13.36;100929.94;1814138;79;21165;-72
2021/08/05 07:08:18;;;;;;;3.98;1.50;;;;;;;45.92;13.34;100931.52;1816981;79;21276;-70
2021/08/05 07:10:55;;;;;;;2.72;1.07;;;;;;;45.22;14.04;100924.87;1815974;79;21420;-69
2021/08/05 07:13:29;;;;;;;2.42;1.20;;;;;;;45.01;14.24;100926.19;1815988;79;21256;-72
2021/08/05 07:16:03;;;;;;;4.65;2.02;;;;;;;45.27;14.31;100929.34;1814139;79;21295;-68
2021/08/05 07:18:38;;;;;;;4.28;1.65;;;;;;;45.62;13.79;100919.27;1816313;79;21569;-68
2021/08/05 07:21:13;;;;;;;3.80;1.57;;;;;;;46.00;13.46;100924.23;1814729;79;21340;-69
2021/08/05 07:23:46;;;;;;;3.50;1.25;;;;;;;46.45;13.25;100921.78;1820354;79;21341;-67
2021/08/05 07:30:30;;;;;;;5.40;2.33;;;;;;;47.36;12.25;100916.61;1781241;80;21314;-68
2021/08/05 07:33:03;;;;;;;1.92;1.27;;;;;;;47.82;11.43;100913.31;1782253;80;21287;-69
2021/08/05 07:35:39;;;;;;;1.10;1.00;;;;;;;47.99;10.44;100916.38;1782197;80;21246;-68
2021/08/05 07:42:23;;;;;;;3.45;1.45;;;;;;;48.47;11.15;100909.20;1783773;80;21257;-67
2021/08/05 07:44:59;;;;;;;1.72;1.15;;;;;;;47.13;12.33;100901.88;1782556;80;21314;-72
2021/08/05 07:47:34;;;;;;;2.83;1.07;;;;;;;45.55;13.18;100906.59;1788668;80;21276;-69
2021/08/05 07:50:10;;;;;;;3.65;1.00;;;;;;;44.58;13.48;100908.91;1783485;80;21323;-71
2021/08/05 07:52:43;;;;;;;2.75;1.47;;;;;;;44.66;13.64;100904.64;1782751;80;21740;-68
2021/08/05 07:55:17;;;;;;;3.05;1.60;;;;;;;45.33;13.95;100896.93;1781190;80;21354;-70
2021/08/05 07:57:51;;;;;;;3.22;1.20;;;;;;;45.85;13.52;100893.98;1782833;80;21483;-70
2021/08/05 08:00:24;;;;;;;4.30;1.47;;;;;;;46.29;13.23;100896.05;1775669;80;21197;-71
2021/08/05 08:02:56;;;;;;;4.10;1.10;;;;;;;46.64;12.82;100887.77;1770847;81;21797;-69
2021/08/05 08:05:31;;;;;;;6.30;2.62;;;;;;;47.00;12.41;100878.25;1768125;81;21617;-69
2021/08/05 08:12:14;;;;;;;4.65;1.50;;;;;;;47.11;11.74;100888.98;1773409;81;21118;-71
2021/08/05 08:14:48;;;;;;;2.90;1.22;;;;;;;46.71;11.99;100883.22;1769100;81;21209;-72
2021/08/05 08:17:23;;;;;;;1.37;1.10;;;;;;;46.17;12.08;100888.45;1767431;81;22030;-72
2021/08/05 08:19:57;;;;;;;5.47;1.45;;;;;;;45.95;12.32;100886.53;1768232;81;21177;-74
2021/08/05 08:22:30;;;;;;;4.33;2.27;;;;;;;45.75;12.85;100882.64;1770296;81;21350;-71
2021/08/05 08:25:06;;;;;;;3.72;1.30;;;;;;;45.38;12.95;100880.08;1769965;79;21854;-72
2021/08/05 08:27:41;;;;;;;3.02;1.55;;;;;;;44.86;13.56;100876.62;1770130;81;21320;-68
2021/08/05 08:30:16;;;;;;;1.55;1.20;;;;;;;44.75;13.60;100875.48;1769816;81;21335;-69
2021/08/05 08:32:49;;;;;;;2.95;1.40;;;;;;;44.92;13.36;100873.03;1771099;81;21228;-70
2021/08/05 08:35:22;;;;;;;2.75;1.15;;;;;;;44.85;13.42;100870.88;1774351;81;21173;-70
2021/08/05 08:37:55;;;;;;;5.75;1.30;;;;;;;44.71;13.19;100870.45;1769408;81;21327;-69
2021/08/05 08:40:28;;;;;;;2.92;2.05;;;;;;;44.62;12.99;100868.38;1767578;81;21363;-71
2021/08/05 08:43:04;;;;;;;7.58;4.28;;;;;;;44.42;13.05;100857.72;1768573;81;21398;-70
2021/08/05 08:45:45;;;;;;;3.62;1.90;;;;;;;44.41;12.95;100853.91;1770452;81;21358;-67
2021/08/05 08:48:28;;;;;;;4.90;2.08;;;;;;;44.39;13.26;100854.27;1771231;81;21282;-70
2021/08/05 08:51:03;;;;;;;2.98;1.50;;;;;;;44.39;13.46;100857.02;1769457;81;21355;-71
2021/08/05 08:53:37;;;;;;;5.03;1.20;;;;;;;44.44;13.81;100853.22;1768241;81;21186;-71
2021/08/05 08:56:11;;;;;;;7.72;2.42;;;;;;;44.37;13.45;100853.81;1767424;81;21475;-71
2021/08/05 08:58:44;;;;;;;4.60;1.45;;;;;;;44.00;14.15;100852.19;1771032;81;21281;-73
2021/08/05 09:01:17;;;;;;;3.83;1.60;;;;;;;43.83;13.99;100849.09;1773819;80;21632;-73
2021/08/05 09:03:51;;;;;;;4.12;1.55;;;;;;;43.73;14.08;100845.44;1781979;80;21547;-73
2021/08/05 09:06:25;;;;;;;3.00;1.98;;;;;;;43.68;14.08;100834.63;1783156;80;21326;-71
2021/08/05 09:08:58;;;;;;;2.85;1.82;;;;;;;43.33;13.97;100841.06;1784233;80;21295;-69
2021/08/05 09:11:31;;;;;;;2.65;1.30;;;;;;;43.00;13.45;100858.72;1763597;80;21200;-72
2021/08/05 09:14:05;;;;;;;2.83;2.08;;;;;;;42.47;13.72;100847.84;1782451;80;21502;-71
2021/08/05 09:16:38;;;;;;;4.67;2.00;;;;;;;41.97;14.06;100840.10;1781146;80;21326;-72
2021/08/05 09:19:20;;;;;;;2.58;1.30;;;;;;;41.47;14.71;100846.27;1782152;80;21192;-69
2021/08/05 09:21:53;;;;;;;2.15;1.30;;;;;;;41.19;15.11;100848.33;1783029;80;21366;-72
2021/08/05 09:24:30;;;;;;;3.02;1.42;;;;;;;40.42;15.51;100828.49;1766503;80;22101;-69
2021/08/05 09:27:04;;;;;;;1.50;1.40;;;;;;;39.80;16.13;100836.60;1781820;79;21185;-71
2021/08/05 09:29:47;;;;;;;2.70;1.17;;;;;;;39.43;16.36;100833.75;1784324;80;21677;-70
2021/08/05 09:36:30;;;;;;;2.33;1.50;;;;;;;39.12;16.98;100826.03;1781905;80;21161;-72
2021/08/05 09:39:25;;;;;;;1.55;1.32;;;;;;;39.23;16.88;100834.27;1784225;80;21783;-71
2021/08/05 09:42:03;;;;;;;3.80;1.50;;;;;;;39.15;16.89;100830.89;1781040;80;21211;-75
2021/08/05 09:44:41;;;;;;;1.82;1.35;;;;;;;38.65;17.27;100837.78;1784668;80;21303;-72
2021/08/05 09:47:22;;;;;;;5.10;1.45;;;;;;;38.13;17.94;100837.80;1785996;80;21322;-73
2021/08/05 09:49:56;;;;;;;2.10;1.50;;;;;;;37.74;18.14;100833.34;1786727;80;21248;-72
2021/08/05 09:52:34;;;;;;;2.17;1.85;;;;;;;37.21;18.68;100834.30;1782891;80;21475;-71
2021/08/05 09:55:10;;;;;;;4.28;1.82;;;;;;;36.64;19.13;100835.98;1784153;80;21284;-72
2021/08/05 09:57:43;;;;;;;6.08;1.77;;;;;;;36.21;19.69;100826.95;1780991;80;21636;-70
2021/08/05 10:04:28;;;;;;;3.98;1.50;;;;;;;36.18;19.87;100827.02;1766619;79;21172;-71
2021/08/05 10:07:08;;;;;;;2.98;1.40;;;;;;;36.15;20.01;100825.41;1767943;81;21844;-72
2021/08/05 10:13:52;;;;;;;4.80;1.70;;;;;;;35.86;20.33;100814.55;1784089;80;21168;-73
2021/08/05 10:16:31;;;;;;;2.15;1.42;;;;;;;35.58;20.79;100816.76;1768870;80;21296;-73
2021/08/05 10:19:06;;;;;;;4.22;1.60;;;;;;;35.47;20.79;100812.49;1764222;81;21177;-71
2021/08/05 10:21:40;;;;;;;2.75;1.50;;;;;;;35.36;20.44;100808.22;1764180;81;21217;-74
2021/08/05 10:24:15;;;;;;;6.28;1.27;;;;;;;35.26;20.55;100821.92;1757320;81;21185;-75
2021/08/05 10:30:58;;;;;;;7.33;5.37;;;;;;;35.24;20.21;100804.52;1766690;81;21827;-72
2021/08/05 10:33:32;;;;;;;4.70;1.60;;;;;;;35.44;20.00;100794.81;1765431;81;21307;-75
2021/08/05 10:36:06;;;;;;;12.28;5.95;;;;;;;35.43;19.88;100790.45;1771196;81;21205;-70
2021/08/05 10:38:41;;;;;;;2.65;1.70;;;;;;;35.43;19.71;100782.29;1767445;81;21244;-73
2021/08/05 10:41:15;;;;;;;11.73;9.38;;;;;;;35.45;19.58;100785.53;1783862;80;21161;-75
2021/08/05 10:43:48;;;;;;;3.90;2.20;;;;;;;35.42;19.97;100782.02;1770670;80;21295;-76
2021/08/05 10:46:22;;;;;;;2.42;1.70;;;;;;;35.41;19.86;100787.75;1766499;81;21169;-73
2021/08/05 10:48:56;;;;;;;3.10;1.40;;;;;;;35.29;20.11;100785.97;1766040;81;21173;-71
2021/08/05 10:51:41;;;;;;;2.47;1.50;;;;;;;35.11;20.15;100781.48;1768253;81;21489;-71
2021/08/05 10:54:14;;;;;;;2.87;1.57;;;;;;;34.84;20.23;100783.88;1766333;81;21564;-70
2021/08/05 10:56:47;;;;;;;2.55;1.35;;;;;;;34.61;20.36;100777.77;1758290;81;21342;-68
2021/08/05 10:59:20;;;;;;;;;;;;;;;34.53;20.56;100770.22;1770873;81;21452;-72
2021/08/05 11:01:58;;;;;;;4.80;4.25;;;;;;;34.53;20.73;100768.86;1768903;81;20406;-73
2021/08/05 11:04:45;;;;;;;2.92;2.25;;;;;;;34.58;20.92;100768.02;1764662;81;21316;-72
2021/08/05 11:07:29;;;;;;;11.35;1.82;;;;;;;34.66;20.57;100764.12;1769541;80;21319;-70
2021/08/05 11:10:25;;;;;;;2.35;1.40;;;;;;;34.69;20.99;100765.48;1766659;80;21756;-74
2021/08/05 11:13:16;;;;;;;3.05;1.50;;;;;;;34.64;20.90;100765.51;1768483;81;21395;-72
2021/08/05 11:15:48;;;;;;;3.35;1.60;;;;;;;34.63;21.11;100764.72;1767956;80;21542;-71
2021/08/05 11:18:22;;;;;;;1.50;1.35;;;;;;;34.65;20.67;100769.32;1769049;81;21347;-68
2021/08/05 11:21:06;;;;;;;2.67;1.30;;;;;;;34.58;20.79;100762.03;1767509;81;21291;-71
2021/08/05 11:23:40;;;;;;;1.87;1.25;;;;;;;34.61;20.59;100764.73;1771162;81;21170;-73
2021/08/05 11:26:13;;;;;;;2.75;1.60;;;;;;;34.65;20.87;100765.78;1769576;80;21307;-72
2021/08/05 11:28:49;;;;;;;3.20;2.10;;;;;;;34.66;20.89;100757.88;1768300;81;21308;-70
2021/08/05 11:31:31;;;;;;;4.12;1.40;;;;;;;34.67;20.99;100758.16;1770329;81;21323;-74
2021/08/05 11:34:13;;;;;;;2.25;1.40;;;;;;;34.63;20.60;100748.94;1765779;80;21966;-73
2021/08/05 11:40:55;;;;;;;1.92;1.12;;;;;;;34.50;20.57;100739.47;1771926;80;21117;-73
2021/08/05 11:43:36;;;;;;;1.55;1.07;;;;;;;34.54;20.32;100730.50;1771108;81;21459;-73
2021/08/05 11:46:21;;;;;;;0.90;0.90;;;;;;;34.63;20.43;100723.92;1771030;80;21295;-74
2021/08/05 11:48:55;;;;;;;2.10;1.20;;;;;;;34.69;20.49;100724.68;1773408;81;21173;-75
2021/08/05 11:55:39;;;;;;;6.17;1.20;;;;;;;34.47;20.23;100721.00;1767768;81;21260;-70
2021/08/05 11:58:12;;;;;;;1.32;1.20;;;;;;;34.29;20.03;100717.06;1769817;80;21268;-72
2021/08/05 12:00:46;;;;;;;2.33;1.30;;;;;;;34.19;20.26;100716.30;1767709;81;21784;-71
2021/08/05 12:03:21;;;;;;;1.40;1.22;;;;;;;34.09;20.33;100708.19;1768663;81;21347;-71
2021/08/05 12:05:55;;;;;;;2.25;1.40;;;;;;;33.95;20.96;100706.61;1755810;80;21350;-71
2021/08/05 12:08:29;;;;;;;1.92;1.20;;;;;;;33.91;20.89;100700.91;1768073;81;21819;-72
2021/08/05 12:11:03;;;;;;;1.30;1.10;;;;;;;33.86;20.93;100701.50;1769986;80;21184;-71
2021/08/05 12:13:41;;;;;;;1.75;1.30;;;;;;;33.77;20.78;100699.10;1770517;81;22140;-72
2021/08/05 12:16:14;;;;;;;3.40;1.30;;;;;;;33.66;21.34;100699.67;1769556;81;21291;-72
2021/08/05 12:18:47;;;;;;;5.45;1.20;;;;;;;33.63;21.36;100688.54;1769593;80;21863;-73
2021/08/05 12:21:19;;;;;;;;;;;;;;;33.62;21.46;100693.19;1770491;81;21315;-73
2021/08/05 12:23:56;;;;;;;2.47;1.32;;;;;;;33.64;21.52;100697.78;1767389;81;20650;-69
2021/08/05 12:26:36;;;;;;;5.72;1.20;;;;;;;33.53;21.71;100694.84;1767569;80;21311;-73
2021/08/05 12:29:14;;;;;;;4.20;1.57;;;;;;;33.38;21.49;100694.03;1770183;81;21843;-72
2021/08/05 12:31:57;;;;;;;2.15;1.22;;;;;;;33.27;21.85;100693.80;1772455;81;21265;-72
2021/08/05 12:34:36;;;;;;;4.45;1.37;;;;;;;33.20;21.86;100695.42;1728968;81;21288;-72
2021/08/05 12:41:50;;;;;;;2.85;1.40;;;;;;;33.03;21.67;100686.22;1768298;81;21287;-75
2021/08/05 12:44:27;;;;;;;1.35;1.20;;;;;;;33.00;21.80;100685.94;1767848;81;21154;-74
2021/08/05 12:47:03;;;;;;;3.30;1.47;;;;;;;33.00;21.69;100679.98;1760591;81;21314;-74
2021/08/05 12:49:38;;;;;;;2.33;1.30;;;;;;;33.00;21.70;100681.88;1769819;81;21335;-74
2021/08/05 12:52:14;;;;;;;4.15;1.07;;;;;;;33.01;22.26;100692.44;1768728;81;21216;-78
2021/08/05 12:58:58;;;;;;;3.20;1.30;;;;;;;32.93;22.09;100688.13;1769008;81;21114;-74
2021/08/05 13:01:31;;;;;;;2.65;1.27;;;;;;;32.84;21.90;100680.27;1772652;81;21304;-76
2021/08/05 13:04:04;;;;;;;3.80;1.50;;;;;;;32.86;22.47;100682.16;1768248;80;21420;-73
2021/08/05 13:06:55;;;;;;;3.33;1.27;;;;;;;32.89;22.38;100674.84;1768673;81;21860;-73
2021/08/05 13:09:31;;;;;;;5.42;1.20;;;;;;;32.91;22.80;100683.52;1768878;81;21269;-69